sensor_id;sensor_type;location;lat;lon;timestamp;pressure;altitude;pressure_sealevel;temperature;humidity
10392;BME280;5242;49.244;6.774;2023-06-26T00:04:58;99389.63;;;18.45;63.00
10392;BME280;5242;49.244;6.774;2023-06-26T00:12:50;99371.22;;;18.35;61.70
10392;BME280;5242;49.244;6.774;2023-06-26T00:20:41;99381.91;;;18.33;61.99
10392;BME280;5242;49.244;6.774;2023-06-26T00:28:33;99385.88;;;18.29;62.42
10392;BME280;5242;49.244;6.774;2023-06-26T00:36:25;99389.94;;;18.17;62.63
10392;BME280;5242;49.244;6.774;2023-06-26T00:44:18;99383.03;;;17.94;62.09
10392;BME280;5242;49.244;6.774;2023-06-26T00:52:09;99386.78;;;17.66;68.15
10392;BME280;5242;49.244;6.774;2023-06-26T01:00:02;99366.97;;;17.30;66.85
10392;BME280;5242;49.244;6.774;2023-06-26T01:07:57;99381.97;;;17.22;65.18
10392;BME280;5242;49.244;6.774;2023-06-26T01:15:50;99388.34;;;17.04;70.67
10392;BME280;5242;49.244;6.774;2023-06-26T01:32:01;99372.66;;;16.94;71.18
10392;BME280;5242;49.244;6.774;2023-06-26T01:39:53;99370.34;;;16.82;74.44
10392;BME280;5242;49.244;6.774;2023-06-26T01:47:49;99369.59;;;16.70;69.79
10392;BME280;5242;49.244;6.774;2023-06-26T01:55:57;99365.66;;;16.79;71.64
10392;BME280;5242;49.244;6.774;2023-06-26T02:03:51;99377.81;;;16.81;69.48
10392;BME280;5242;49.244;6.774;2023-06-26T02:11:43;99383.38;;;16.63;69.05
10392;BME280;5242;49.244;6.774;2023-06-26T02:19:35;99376.00;;;16.39;75.71
10392;BME280;5242;49.244;6.774;2023-06-26T02:27:27;69656.28;;;-145.40;100.00
10392;BME280;5242;49.244;6.774;2023-06-26T02:35:19;69656.28;;;-145.40;100.00
10392;BME280;5242;49.244;6.774;2023-06-26T02:43:11;69656.28;;;-145.40;100.00
10392;BME280;5242;49.244;6.774;2023-06-26T02:51:03;69656.28;;;-145.40;100.00
10392;BME280;5242;49.244;6.774;2023-06-26T02:58:58;69656.28;;;-145.40;100.00
10392;BME280;5242;49.244;6.774;2023-06-26T03:06:50;69656.28;;;-145.40;100.00
10392;BME280;5242;49.244;6.774;2023-06-26T03:14:42;69656.28;;;-145.40;100.00
10392;BME280;5242;49.244;6.774;2023-06-26T03:22:37;69656.28;;;-145.40;100.00
10392;BME280;5242;49.244;6.774;2023-06-26T03:30:29;69656.28;;;-145.40;100.00
10392;BME280;5242;49.244;6.774;2023-06-26T03:38:22;69656.28;;;-145.40;100.00
10392;BME280;5242;49.244;6.774;2023-06-26T03:46:15;69656.28;;;-145.40;100.00
10392;BME280;5242;49.244;6.774;2023-06-26T03:54:07;69656.28;;;-145.40;100.00
10392;BME280;5242;49.244;6.774;2023-06-26T04:01:59;69656.28;;;-145.40;100.00
10392;BME280;5242;49.244;6.774;2023-06-26T04:09:51;69656.28;;;-145.40;100.00
10392;BME280;5242;49.244;6.774;2023-06-26T04:17:43;69656.28;;;-145.40;100.00
10392;BME280;5242;49.244;6.774;2023-06-26T04:25:35;69656.28;;;-145.40;100.00
10392;BME280;5242;49.244;6.774;2023-06-26T04:33:30;69656.28;;;-145.40;100.00
10392;BME280;5242;49.244;6.774;2023-06-26T04:41:22;69656.28;;;-145.40;100.00
10392;BME280;5242;49.244;6.774;2023-06-26T04:49:13;69656.28;;;-145.40;100.00
10392;BME280;5242;49.244;6.774;2023-06-26T04:57:10;69656.28;;;-145.40;100.00
10392;BME280;5242;49.244;6.774;2023-06-26T05:05:03;69656.28;;;-145.40;100.00
10392;BME280;5242;49.244;6.774;2023-06-26T05:12:55;69656.28;;;-145.40;100.00
10392;BME280;5242;49.244;6.774;2023-06-26T05:20:47;69656.28;;;-145.40;100.00
10392;BME280;5242;49.244;6.774;2023-06-26T05:28:40;69656.28;;;-145.40;100.00
10392;BME280;5242;49.244;6.774;2023-06-26T05:36:33;69656.28;;;-145.40;100.00
10392;BME280;5242;49.244;6.774;2023-06-26T05:44:25;69656.28;;;-145.40;100.00
10392;BME280;5242;49.244;6.774;2023-06-26T05:52:18;69656.28;;;-145.40;100.00
10392;BME280;5242;49.244;6.774;2023-06-26T06:00:10;69656.28;;;-145.40;100.00
10392;BME280;5242;49.244;6.774;2023-06-26T06:08:02;69656.28;;;-145.40;100.00
10392;BME280;5242;49.244;6.774;2023-06-26T06:15:54;69656.28;;;-145.40;100.00
10392;BME280;5242;49.244;6.774;2023-06-26T06:23:47;69656.28;;;-145.40;100.00
10392;BME280;5242;49.244;6.774;2023-06-26T06:31:39;69656.28;;;-145.40;100.00
10392;BME280;5242;49.244;6.774;2023-06-26T06:39:31;69656.28;;;-145.40;100.00
10392;BME280;5242;49.244;6.774;2023-06-26T06:47:22;69656.28;;;-145.40;100.00
10392;BME280;5242;49.244;6.774;2023-06-26T06:55:14;69656.28;;;-145.40;100.00
10392;BME280;5242;49.244;6.774;2023-06-26T07:03:06;69656.28;;;-145.40;100.00
10392;BME280;5242;49.244;6.774;2023-06-26T07:10:58;69656.28;;;-145.40;100.00
10392;BME280;5242;49.244;6.774;2023-06-26T07:18:50;69656.28;;;-145.40;100.00
10392;BME280;5242;49.244;6.774;2023-06-26T07:26:43;69656.28;;;-145.40;100.00
10392;BME280;5242;49.244;6.774;2023-06-26T07:34:39;69656.28;;;-145.40;100.00
10392;BME280;5242;49.244;6.774;2023-06-26T07:42:31;69656.28;;;-145.40;100.00
10392;BME280;5242;49.244;6.774;2023-06-26T07:50:23;69656.28;;;-145.40;100.00
10392;BME280;5242;49.244;6.774;2023-06-26T07:58:15;69656.28;;;-145.40;100.00
10392;BME280;5242;49.244;6.774;2023-06-26T08:06:07;69656.28;;;-145.40;100.00
10392;BME280;5242;49.244;6.774;2023-06-26T08:14:03;69656.28;;;-145.40;100.00
10392;BME280;5242;49.244;6.774;2023-06-26T08:21:55;69656.28;;;-145.40;100.00
10392;BME280;5242;49.244;6.774;2023-06-26T08:29:47;69656.28;;;-145.40;100.00
10392;BME280;5242;49.244;6.774;2023-06-26T08:37:39;69656.28;;;-145.40;100.00
10392;BME280;5242;49.244;6.774;2023-06-26T08:45:31;69656.28;;;-145.40;100.00
10392;BME280;5242;49.244;6.774;2023-06-26T09:01:49;69656.28;;;-145.40;100.00
10392;BME280;5242;49.244;6.774;2023-06-26T09:09:41;69656.28;;;-145.40;100.00
10392;BME280;5242;49.244;6.774;2023-06-26T09:17:39;69656.28;;;-145.40;100.00
10392;BME280;5242;49.244;6.774;2023-06-26T09:25:33;69656.28;;;-145.40;100.00
10392;BME280;5242;49.244;6.774;2023-06-26T09:33:25;69656.28;;;-145.40;100.00
10392;BME280;5242;49.244;6.774;2023-06-26T09:41:18;69656.28;;;-145.40;100.00
10392;BME280;5242;49.244;6.774;2023-06-26T09:49:11;69656.28;;;-145.40;100.00
10392;BME280;5242;49.244;6.774;2023-06-26T09:57:10;69656.28;;;-145.40;100.00
10392;BME280;5242;49.244;6.774;2023-06-26T10:05:02;69656.28;;;-145.40;100.00
10392;BME280;5242;49.244;6.774;2023-06-26T10:13:14;69656.28;;;-145.40;100.00
10392;BME280;5242;49.244;6.774;2023-06-26T10:21:07;69656.28;;;-145.40;100.00
10392;BME280;5242;49.244;6.774;2023-06-26T10:29:00;69656.28;;;-145.40;100.00
10392;BME280;5242;49.244;6.774;2023-06-26T10:37:00;69656.28;;;-145.40;100.00
10392;BME280;5242;49.244;6.774;2023-06-26T10:44:52;69656.28;;;-145.40;100.00
10392;BME280;5242;49.244;6.774;2023-06-26T10:52:44;69656.28;;;-145.40;100.00
10392;BME280;5242;49.244;6.774;2023-06-26T11:00:36;69656.28;;;-145.40;100.00
10392;BME280;5242;49.244;6.774;2023-06-26T11:16:38;69656.28;;;-145.40;100.00
10392;BME280;5242;49.244;6.774;2023-06-26T11:24:30;69656.28;;;-145.40;100.00
10392;BME280;5242;49.244;6.774;2023-06-26T11:32:26;69656.28;;;-145.40;100.00
10392;BME280;5242;49.244;6.774;2023-06-26T11:40:19;69656.28;;;-145.40;100.00
10392;BME280;5242;49.244;6.774;2023-06-26T11:48:11;69656.28;;;-145.40;100.00
10392;BME280;5242;49.244;6.774;2023-06-26T11:56:12;69656.28;;;-145.40;100.00
10392;BME280;5242;49.244;6.774;2023-06-26T12:04:07;69656.28;;;-145.40;100.00
10392;BME280;5242;49.244;6.774;2023-06-26T12:12:00;69656.28;;;-145.40;100.00
10392;BME280;5242;49.244;6.774;2023-06-26T12:19:52;69656.28;;;-145.40;100.00
10392;BME280;5242;49.244;6.774;2023-06-26T12:27:45;69656.28;;;-145.40;100.00
10392;BME280;5242;49.244;6.774;2023-06-26T12:35:38;69656.28;;;-145.40;100.00
10392;BME280;5242;49.244;6.774;2023-06-26T12:43:38;69656.28;;;-145.40;100.00
10392;BME280;5242;49.244;6.774;2023-06-26T12:51:30;69656.28;;;-145.40;100.00
10392;BME280;5242;49.244;6.774;2023-06-26T12:59:22;69656.28;;;-145.40;100.00
10392;BME280;5242;49.244;6.774;2023-06-26T13:07:14;69656.28;;;-145.40;100.00
10392;BME280;5242;49.244;6.774;2023-06-26T13:15:07;69656.28;;;-145.40;100.00
10392;BME280;5242;49.244;6.774;2023-06-26T13:23:00;69656.28;;;-145.40;100.00
10392;BME280;5242;49.244;6.774;2023-06-26T13:30:52;69656.28;;;-145.40;100.00
10392;BME280;5242;49.244;6.774;2023-06-26T13:38:44;69656.28;;;-145.40;100.00
10392;BME280;5242;49.244;6.774;2023-06-26T13:46:36;69656.28;;;-145.40;100.00
10392;BME280;5242;49.244;6.774;2023-06-26T13:54:28;69656.28;;;-145.40;100.00
10392;BME280;5242;49.244;6.774;2023-06-26T14:02:20;69656.28;;;-145.40;100.00
10392;BME280;5242;49.244;6.774;2023-06-26T14:10:13;69656.28;;;-145.40;100.00
10392;BME280;5242;49.244;6.774;2023-06-26T14:18:05;69656.28;;;-145.40;100.00
10392;BME280;5242;49.244;6.774;2023-06-26T14:25:57;69656.28;;;-145.40;100.00
10392;BME280;5242;49.244;6.774;2023-06-26T14:33:49;69656.28;;;-145.40;100.00
10392;BME280;5242;49.244;6.774;2023-06-26T14:41:42;69656.28;;;-145.40;100.00
10392;BME280;5242;49.244;6.774;2023-06-26T14:49:35;69656.28;;;-145.40;100.00
10392;BME280;5242;49.244;6.774;2023-06-26T14:57:27;69656.28;;;-145.40;100.00
10392;BME280;5242;49.244;6.774;2023-06-26T15:05:22;69656.28;;;-145.40;100.00
10392;BME280;5242;49.244;6.774;2023-06-26T15:13:14;69656.28;;;-145.40;100.00
10392;BME280;5242;49.244;6.774;2023-06-26T15:21:05;69656.28;;;-145.40;100.00
10392;BME280;5242;49.244;6.774;2023-06-26T15:28:57;69656.28;;;-145.40;100.00
10392;BME280;5242;49.244;6.774;2023-06-26T15:36:49;69656.28;;;-145.40;100.00
10392;BME280;5242;49.244;6.774;2023-06-26T15:44:41;69656.28;;;-145.40;100.00
10392;BME280;5242;49.244;6.774;2023-06-26T15:52:33;69656.28;;;-145.40;100.00
10392;BME280;5242;49.244;6.774;2023-06-26T16:00:25;69656.28;;;-145.40;100.00
10392;BME280;5242;49.244;6.774;2023-06-26T16:08:17;69656.28;;;-145.40;100.00
10392;BME280;5242;49.244;6.774;2023-06-26T16:16:09;69656.28;;;-145.40;100.00
10392;BME280;5242;49.244;6.774;2023-06-26T16:24:02;69656.28;;;-145.40;100.00
10392;BME280;5242;49.244;6.774;2023-06-26T16:31:54;69656.28;;;-145.40;100.00
10392;BME280;5242;49.244;6.774;2023-06-26T16:39:46;69656.28;;;-145.40;100.00
10392;BME280;5242;49.244;6.774;2023-06-26T16:47:41;69656.28;;;-145.40;100.00
10392;BME280;5242;49.244;6.774;2023-06-26T16:55:33;69656.28;;;-145.40;100.00
10392;BME280;5242;49.244;6.774;2023-06-26T17:03:25;69656.28;;;-145.40;100.00
10392;BME280;5242;49.244;6.774;2023-06-26T17:11:18;69656.28;;;-145.40;100.00
10392;BME280;5242;49.244;6.774;2023-06-26T17:19:10;69656.28;;;-145.40;100.00
10392;BME280;5242;49.244;6.774;2023-06-26T17:27:12;69656.28;;;-145.40;100.00
10392;BME280;5242;49.244;6.774;2023-06-26T17:35:04;69656.28;;;-145.40;100.00
10392;BME280;5242;49.244;6.774;2023-06-26T17:42:59;69656.28;;;-145.40;100.00
10392;BME280;5242;49.244;6.774;2023-06-26T17:50:52;69656.28;;;-145.40;100.00
10392;BME280;5242;49.244;6.774;2023-06-26T17:58:44;69656.28;;;-145.40;100.00
10392;BME280;5242;49.244;6.774;2023-06-26T18:06:38;69656.28;;;-145.40;100.00
10392;BME280;5242;49.244;6.774;2023-06-26T18:14:30;69656.28;;;-145.40;100.00
10392;BME280;5242;49.244;6.774;2023-06-26T18:22:22;69656.28;;;-145.40;100.00
10392;BME280;5242;49.244;6.774;2023-06-26T18:30:13;69656.28;;;-145.40;100.00
10392;BME280;5242;49.244;6.774;2023-06-26T18:38:06;69656.28;;;-145.40;100.00
10392;BME280;5242;49.244;6.774;2023-06-26T18:46:02;69656.28;;;-145.40;100.00
10392;BME280;5242;49.244;6.774;2023-06-26T18:53:55;69656.28;;;-145.40;100.00
10392;BME280;5242;49.244;6.774;2023-06-26T19:01:48;69656.28;;;-145.40;100.00
10392;BME280;5242;49.244;6.774;2023-06-26T19:09:40;69656.28;;;-145.40;100.00
10392;BME280;5242;49.244;6.774;2023-06-26T19:17:31;69656.28;;;-145.40;100.00
10392;BME280;5242;49.244;6.774;2023-06-26T19:25:23;69656.28;;;-145.40;100.00
10392;BME280;5242;49.244;6.774;2023-06-26T19:33:15;69656.28;;;-145.40;100.00
10392;BME280;5242;49.244;6.774;2023-06-26T19:41:07;69656.28;;;-145.40;100.00
10392;BME280;5242;49.244;6.774;2023-06-26T19:48:59;69656.28;;;-145.40;100.00
10392;BME280;5242;49.244;6.774;2023-06-26T19:56:51;69656.28;;;-145.40;100.00
10392;BME280;5242;49.244;6.774;2023-06-26T20:04:44;69656.28;;;-145.40;100.00
10392;BME280;5242;49.244;6.774;2023-06-26T20:12:36;69656.28;;;-145.40;100.00
10392;BME280;5242;49.244;6.774;2023-06-26T20:20:28;69656.28;;;-145.40;100.00
10392;BME280;5242;49.244;6.774;2023-06-26T20:28:20;69656.28;;;-145.40;100.00
10392;BME280;5242;49.244;6.774;2023-06-26T20:36:12;69656.28;;;-145.40;100.00
10392;BME280;5242;49.244;6.774;2023-06-26T20:44:04;69656.28;;;-145.40;100.00
10392;BME280;5242;49.244;6.774;2023-06-26T20:51:56;69656.28;;;-145.40;100.00
10392;BME280;5242;49.244;6.774;2023-06-26T20:59:48;69656.28;;;-145.40;100.00
10392;BME280;5242;49.244;6.774;2023-06-26T21:07:40;69656.28;;;-145.40;100.00
10392;BME280;5242;49.244;6.774;2023-06-26T21:15:32;69656.28;;;-145.40;100.00
10392;BME280;5242;49.244;6.774;2023-06-26T21:23:25;69656.28;;;-145.40;100.00
10392;BME280;5242;49.244;6.774;2023-06-26T21:31:17;69656.28;;;-145.40;100.00
10392;BME280;5242;49.244;6.774;2023-06-26T21:39:09;69656.28;;;-145.40;100.00
10392;BME280;5242;49.244;6.774;2023-06-26T21:47:01;69656.28;;;-145.40;100.00
10392;BME280;5242;49.244;6.774;2023-06-26T21:54:53;69656.28;;;-145.40;100.00
10392;BME280;5242;49.244;6.774;2023-06-26T22:02:45;69656.28;;;-145.40;100.00
10392;BME280;5242;49.244;6.774;2023-06-26T22:10:37;69656.28;;;-145.40;100.00
10392;BME280;5242;49.244;6.774;2023-06-26T22:18:29;69656.28;;;-145.40;100.00
10392;BME280;5242;49.244;6.774;2023-06-26T22:26:21;69656.28;;;-145.40;100.00
10392;BME280;5242;49.244;6.774;2023-06-26T22:34:13;69656.28;;;-145.40;100.00
10392;BME280;5242;49.244;6.774;2023-06-26T22:42:07;69656.28;;;-145.40;100.00
10392;BME280;5242;49.244;6.774;2023-06-26T22:50:01;69656.28;;;-145.40;100.00
10392;BME280;5242;49.244;6.774;2023-06-26T22:57:54;69656.28;;;-145.40;100.00
10392;BME280;5242;49.244;6.774;2023-06-26T23:05:46;69656.28;;;-145.40;100.00
10392;BME280;5242;49.244;6.774;2023-06-26T23:13:37;69656.28;;;-145.40;100.00
10392;BME280;5242;49.244;6.774;2023-06-26T23:21:29;69656.28;;;-145.40;100.00
10392;BME280;5242;49.244;6.774;2023-06-26T23:29:21;69656.28;;;-145.40;100.00
10392;BME280;5242;49.244;6.774;2023-06-26T23:37:14;69656.28;;;-145.40;100.00
10392;BME280;5242;49.244;6.774;2023-06-26T23:45:17;69656.28;;;-145.40;100.00
10392;BME280;5242;49.244;6.774;2023-06-26T23:53:12;69656.28;;;-145.40;100.00
